Weather at Valley Airport [CLOSED]

Public forecast

Using degrees Celsius for public forecast. Weather courtesy of forecast.io.

Closest aviation weather report (METAR) to Valley Airport

Closest report is Halifax / Stanfield International Airport, 33.4 nm (61.8 km) SSW.

2024/06/15 16:19 (retrieved 38 minutes ago)

CYHZ 151619Z 18008KT 4SM -RA BR OVC004 15/14 A2980 RMK ST8 SLP093 DENSITY ALT 700FT

Closest aviation forecast (TAF) to Valley Airport

Closest forecast is Halifax / Stanfield International Airport, 33.4 nm (61.8 km) SSW.

2024/06/15 15:42 (retrieved 1 hour ago)

TAF CYHZ 151440Z 1515/1612 18008KT 4SM -RA BR OVC003 TEMPO 1515/1524 P6SM -RA SCT003 OVC010 FM160000 34012G22KT P6SM -SHRA BKN004 OVC010 FM160400 34012G22KT P6SM BKN004 FM160900 33012KT P6SM FEW004 RMK NXT FCST BY 151800Z